MSC Suez — HPMS — position and weather

sailwx.info

Track history (hours):
 
Tides and Currents Weather Stations Pressure Air Temp Water Temp Dewpoint Dewpoint Depression Visibility Wind Speed Wind Dir Waves Ship Positions

MSC Suez

Last reported at 2016-Jul-01 15:19 UTC. Time now 2016-Jul-02 05:47 UTC.
Position N 17°29' W 017°36'.

Length 237 m; draft 8.9 m.

Type: Ship. MMSI: 355289000.

Date/timePositionNaut miles runAvg speedWind from/ knotsBaromVisibWave heightAir tempDewpointWater temp
2016-Jul-01 15:19N 17°29' W 017°36'31 9.4
2016-Jul-01 12:03N 16°58' W 017°37'16 9.7
2016-Jul-01 10:26N 16°42' W 017°37'7411.7
2016-Jul-01 04:05N 15°28' W 017°37'711.0
2016-Jul-01 03:24N 15°20' W 017°38'1110.7
2016-Jul-01 02:25N 15°10' W 017°38'1011.1
2016-Jul-01 01:33N 15°00' W 017°38'1111.4
2016-Jul-01 00:33N 14°49' W 017°38'1211.6
2016-Jun-30 23:33N 14°38' W 017°35'1010.2
2016-Jun-30 22:33N 14°32' W 017°27'9 9.0
2016-Jun-30 21:33N 14°41' W 017°24'2 1.8
2016-Jun-30 20:30N 14°41' W 017°26'0 0.0
2016-Jun-30 19:30N 14°41' W 017°26'0 0.0
2016-Jun-30 18:33N 14°41' W 017°26'0 0.0
2016-Jun-30 17:33N 14°41' W 017°26'0 0.0
2016-Jun-30 16:33N 14°41' W 017°26'0 0.0
2016-Jun-30 15:33N 14°41' W 017°26'0 0.0
2016-Jun-30 14:33N 14°41' W 017°26'0 0.0
2016-Jun-30 13:32N 14°41' W 017°26'0 0.0
2016-Jun-30 12:33N 14°41' W 017°26'0 0.0
2016-Jun-30 11:33N 14°41' W 017°26'0 0.0
2016-Jun-30 10:33N 14°41' W 017°26'0 0.0
2016-Jun-30 09:33N 14°41' W 017°26'0 0.0
2016-Jun-30 08:33N 14°41' W 017°26'0 0.0
2016-Jun-30 07:33N 14°41' W 017°26'3 2.9
2016-Jun-30 06:33N 14°41' W 017°23'6 6.2
2016-Jun-30 05:33N 14°34' W 017°22'9 9.3
2016-Jun-30 04:33N 14°25' W 017°23'0 0.5
2016-Jun-30 03:33N 14°25' W 017°23'1 1.2
2016-Jun-30 02:33N 14°25' W 017°25'1110.3
2016-Jun-30 01:31N 14°20' W 017°34'9 4.2
2016-Jun-29 23:23N 14°17' W 017°43'0 0.5
2016-Jun-29 22:31N 14°18' W 017°43'1 0.6
2016-Jun-29 21:33N 14°18' W 017°43'1 0.5
2016-Jun-29 20:11N 14°19' W 017°44'14 2.7
2016-Jun-29 15:14N 14°18' W 017°30'  
2016-Jun-24 19:04N 05°08' W 004°04'610.4
2016-Jun-24 18:32N 05°11' W 003°60'5 5.5
2016-Jun-24 17:33N 05°16' W 004°01'0 0.3
2016-Jun-24 16:33N 05°16' W 004°01'0 0.0
2016-Jun-24 15:33N 05°16' W 004°01'0 0.0
2016-Jun-24 14:30N 05°16' W 004°01'0 0.0
2016-Jun-24 13:30N 05°16' W 004°01'0 0.0
2016-Jun-24 12:33N 05°16' W 004°01'0 0.0
2016-Jun-24 11:33N 05°16' W 004°01'0 0.0
2016-Jun-24 10:32N 05°16' W 004°01'0 0.0
2016-Jun-24 09:33N 05°16' W 004°01'0 0.0
2016-Jun-24 08:32N 05°16' W 004°01'0 0.0
2016-Jun-24 07:33N 05°16' W 004°01'0 0.0
2016-Jun-24 04:33N 05°16' W 004°01'0 0.0
2016-Jun-24 03:33N 05°16' W 004°01'0 0.0
2016-Jun-24 02:25N 05°16' W 004°01'0 0.0
2016-Jun-24 01:31N 05°16' W 004°01'0 0.0
2016-Jun-24 00:33N 05°16' W 004°01'0 0.0
2016-Jun-23 23:32N 05°16' W 004°01'0 0.0
2016-Jun-23 22:32N 05°16' W 004°01'0 0.0
2016-Jun-23 21:32N 05°16' W 004°01'0 0.0
2016-Jun-23 20:29N 05°16' W 004°01'0 0.0
2016-Jun-23 19:31N 05°16' W 004°01'0 0.0
2016-Jun-23 18:32N 05°16' W 004°01'0 0.0
2016-Jun-23 17:33N 05°16' W 004°01'0 0.1
2016-Jun-23 16:32N 05°16' W 004°01'3 3.3
2016-Jun-23 15:32N 05°14' W 003°59'  
Track history (hours):
 
Tides and Currents Weather Stations Pressure Air Temp Water Temp Dewpoint Dewpoint Depression Visibility Wind Speed Wind Dir Waves Ship Positions

MSC Suez

Last reported at 2016-Jul-01 15:19 UTC. Time now 2016-Jul-02 05:47 UTC.
Position N 17°29' W 017°36'.

Length 237 m; draft 8.9 m.

Type: Ship. MMSI: 355289000.

Date/timePositionNaut miles runAvg speedWind from/ knotsBaromVisibWave heightAir tempDewpointWater temp
2016-Jul-01 15:19N 17°29' W 017°36'31 9.4
2016-Jul-01 12:03N 16°58' W 017°37'16 9.7
2016-Jul-01 10:26N 16°42' W 017°37'7411.7
2016-Jul-01 04:05N 15°28' W 017°37'711.0
2016-Jul-01 03:24N 15°20' W 017°38'1110.7
2016-Jul-01 02:25N 15°10' W 017°38'1011.1
2016-Jul-01 01:33N 15°00' W 017°38'1111.4
2016-Jul-01 00:33N 14°49' W 017°38'1211.6
2016-Jun-30 23:33N 14°38' W 017°35'1010.2
2016-Jun-30 22:33N 14°32' W 017°27'9 9.0
2016-Jun-30 21:33N 14°41' W 017°24'2 1.8
2016-Jun-30 20:30N 14°41' W 017°26'0 0.0
2016-Jun-30 19:30N 14°41' W 017°26'0 0.0
2016-Jun-30 18:33N 14°41' W 017°26'0 0.0
2016-Jun-30 17:33N 14°41' W 017°26'0 0.0
2016-Jun-30 16:33N 14°41' W 017°26'0 0.0
2016-Jun-30 15:33N 14°41' W 017°26'0 0.0
2016-Jun-30 14:33N 14°41' W 017°26'0 0.0
2016-Jun-30 13:32N 14°41' W 017°26'0 0.0
2016-Jun-30 12:33N 14°41' W 017°26'0 0.0
2016-Jun-30 11:33N 14°41' W 017°26'0 0.0
2016-Jun-30 10:33N 14°41' W 017°26'0 0.0
2016-Jun-30 09:33N 14°41' W 017°26'0 0.0
2016-Jun-30 08:33N 14°41' W 017°26'0 0.0
2016-Jun-30 07:33N 14°41' W 017°26'3 2.9
2016-Jun-30 06:33N 14°41' W 017°23'6 6.2
2016-Jun-30 05:33N 14°34' W 017°22'9 9.3
2016-Jun-30 04:33N 14°25' W 017°23'0 0.5
2016-Jun-30 03:33N 14°25' W 017°23'1 1.2
2016-Jun-30 02:33N 14°25' W 017°25'1110.3
2016-Jun-30 01:31N 14°20' W 017°34'9 4.2
2016-Jun-29 23:23N 14°17' W 017°43'0 0.5
2016-Jun-29 22:31N 14°18' W 017°43'1 0.6
2016-Jun-29 21:33N 14°18' W 017°43'1 0.5
2016-Jun-29 20:11N 14°19' W 017°44'14 2.7
2016-Jun-29 15:14N 14°18' W 017°30'  
2016-Jun-24 19:04N 05°08' W 004°04'610.4
2016-Jun-24 18:32N 05°11' W 003°60'5 5.5
2016-Jun-24 17:33N 05°16' W 004°01'0 0.3
2016-Jun-24 16:33N 05°16' W 004°01'0 0.0
2016-Jun-24 15:33N 05°16' W 004°01'0 0.0
2016-Jun-24 14:30N 05°16' W 004°01'0 0.0
2016-Jun-24 13:30N 05°16' W 004°01'0 0.0
2016-Jun-24 12:33N 05°16' W 004°01'0 0.0
2016-Jun-24 11:33N 05°16' W 004°01'0 0.0
2016-Jun-24 10:32N 05°16' W 004°01'0 0.0
2016-Jun-24 09:33N 05°16' W 004°01'0 0.0
2016-Jun-24 08:32N 05°16' W 004°01'0 0.0
2016-Jun-24 07:33N 05°16' W 004°01'0 0.0
2016-Jun-24 04:33N 05°16' W 004°01'0 0.0
2016-Jun-24 03:33N 05°16' W 004°01'0 0.0
2016-Jun-24 02:25N 05°16' W 004°01'0 0.0
2016-Jun-24 01:31N 05°16' W 004°01'0 0.0
2016-Jun-24 00:33N 05°16' W 004°01'0 0.0
2016-Jun-23 23:32N 05°16' W 004°01'0 0.0
2016-Jun-23 22:32N 05°16' W 004°01'0 0.0
2016-Jun-23 21:32N 05°16' W 004°01'0 0.0
2016-Jun-23 20:29N 05°16' W 004°01'0 0.0
2016-Jun-23 19:31N 05°16' W 004°01'0 0.0
2016-Jun-23 18:32N 05°16' W 004°01'0 0.0
2016-Jun-23 17:33N 05°16' W 004°01'0 0.1
2016-Jun-23 16:32N 05°16' W 004°01'3 3.3
2016-Jun-23 15:32N 05°14' W 003°59'  

Dump ship's entire track history